Preview of NWS' New Version of Forecast
This preview is not operational and should not be used for support decisions.

Terminal Aerodrome Forecast (TAF)

Issued by National Weather Service (NWS)

                            
000
FTUS42 KMFL 271720
TAFMIA
TAF
KMIA 271720Z 2718/2824 17015G25KT P6SM BKN020 BKN150
     FM271900 17015G25KT P6SM SHRA VCTS SCT010CB BKN030
     FM280200 15010G20KT P6SM SHRA SCT020 BKN035 OVC040
     FM280500 16010KT P6SM SHRA SCT015 BKN030 OVC120
     FM281400 17015KT P6SM SHRA SCT015 BKN035
     FM281700 17020KT P6SM SHRA SCT015 BKN035=